This is the latest recevied weather packets stored in our database for station/object SALT. If no packets are shown the sender has not sent any weather packets the latest 10 day(s).
| Time | Temp. | Humidity | Pressure | Rain* | Wind** | Luminosity | Snow |
|---|---|---|---|---|---|---|---|
| 1778115742 | 15° C | 54% | 1019.3 hPa | 0 mm | - | - | - |
| 1778114535 | 16.67° C | 47% | 1019.2 hPa | 0 mm | - | - | - |
| 1778113932 | 16.67° C | 46% | 1019.4 hPa | 0 mm | - | - | - |
| 1778113329 | 17.22° C | 44% | 1019.4 hPa | 0 mm | - | - | - |
| 1778112727 | 17.22° C | 41% | 1019.4 hPa | 0 mm | - | - | - |
| 1778112158 | 17.22° C | 36% | 1019.4 hPa | 0 mm | - | - | - |
| 1778112123 | 17.22° C | 36% | 1019.4 hPa | 0 mm | - | - | - |
| 1778111521 | 17.22° C | 43% | 1019.4 hPa | 0 mm | - | - | - |
| 1778110917 | 17.78° C | 36% | 1019.3 hPa | 0 mm | - | - | - |
| 1778110313 | 17.22° C | 40% | 1019.3 hPa | 0 mm | - | - | - |
| 1778109108 | 17.22° C | 42% | 1019.4 hPa | 0 mm | - | - | - |
| 1778108505 | 17.22° C | 42% | 1019.5 hPa | 0 mm | - | - | - |
| 1778107903 | 16.67° C | 45% | 1019.6 hPa | 0 mm | - | - | - |
| 1778107298 | 17.22° C | 42% | 1019.8 hPa | 0 mm | - | - | - |
| 1778106695 | 16.67° C | 43% | 1019.9 hPa | 0 mm | - | - | - |
| 1778106127 | 17.22° C | 44% | 1019.7 hPa | 0 mm | - | - | - |
| 1778106093 | 17.22° C | 44% | 1019.7 hPa | 0 mm | - | - | - |
| 1778105491 | 17.22° C | 45% | 1019.9 hPa | 0 mm | - | - | - |
| 1778104887 | 16.67° C | 44% | 1019.9 hPa | 0 mm | - | - | - |
| 1778104285 | 17.22° C | 43% | 1020 hPa | 0 mm | - | - | - |
| 1778103680 | 16.67° C | 44% | 1020.1 hPa | 0 mm | - | - | - |
| 1778103078 | 16.67° C | 45% | 1020.2 hPa | 0 mm | - | - | - |
| 1778102475 | 16.67° C | 46% | 1020.4 hPa | 0 mm | - | - | - |
| 1778101872 | 16.67° C | 44% | 1020.7 hPa | 0 mm | - | - | - |
| 1778101269 | 17.22° C | 43% | 1020.8 hPa | 0 mm | - | - | - |
* Rain latest 24 hours (hover to see other rain measurements)
** Current wind speed in m/s (hover to see current wind gust speed)